createdAt,value
2022-09-10T00:00:18.978Z,12.99
2022-09-10T00:01:18.915Z,12.99
2022-09-10T00:02:18.904Z,12.89
2022-09-10T00:03:18.892Z,12.89
2022-09-10T00:04:18.881Z,12.89
2022-09-10T00:05:18.893Z,12.89
2022-09-10T00:06:18.876Z,12.79
2022-09-10T00:07:18.850Z,12.79
2022-09-10T00:08:18.834Z,12.89
2022-09-10T00:09:18.824Z,12.79
2022-09-10T00:10:18.815Z,12.79
2022-09-10T00:11:18.803Z,12.79
2022-09-10T00:12:18.793Z,12.69
2022-09-10T00:13:18.778Z,12.69
2022-09-10T00:14:18.767Z,12.69
2022-09-10T00:15:18.756Z,12.69
2022-09-10T00:16:18.772Z,12.38
2022-09-10T00:17:18.733Z,12.59
2022-09-10T00:18:18.721Z,12.58
2022-09-10T00:19:18.709Z,12.38
2022-09-10T00:20:18.701Z,12.48
2022-09-10T00:21:18.726Z,12.38
2022-09-10T00:22:18.676Z,12.38
2022-09-10T00:23:18.670Z,12.27
2022-09-10T00:24:18.656Z,12.38
2022-09-10T00:25:18.645Z,12.38
2022-09-10T00:26:18.635Z,12.38
2022-09-10T00:27:18.621Z,12.27
2022-09-10T00:28:18.617Z,12.38
2022-09-10T00:29:18.599Z,12.38
2022-09-10T00:30:18.589Z,12.38
2022-09-10T00:31:18.638Z,12.38
2022-09-10T00:32:18.566Z,12.38
2022-09-10T00:33:18.555Z,12.38
2022-09-10T00:34:18.543Z,12.27
2022-09-10T00:35:18.535Z,12.27
2022-09-10T00:36:18.525Z,12.27
2022-09-10T00:37:18.533Z,12.28
2022-09-10T00:38:18.504Z,12.27
2022-09-10T00:39:18.487Z,12.38
2022-09-10T00:40:18.503Z,12.27
2022-09-10T00:41:18.468Z,12.27
2022-09-10T00:42:18.456Z,12.38
2022-09-10T00:43:18.448Z,12.28
2022-09-10T00:44:18.435Z,12.38
2022-09-10T00:45:18.423Z,12.38
2022-09-10T00:46:18.413Z,12.38
2022-09-10T00:47:18.412Z,12.28
2022-09-10T00:48:18.388Z,12.38
2022-09-10T00:49:18.376Z,12.38
2022-09-10T00:50:18.366Z,12.27
2022-09-10T00:51:18.359Z,12.18
2022-09-10T00:52:18.346Z,12.18
2022-09-10T00:53:18.357Z,12.18
2022-09-10T00:54:18.324Z,12.18
2022-09-10T00:55:18.311Z,12.18
2022-09-10T00:56:18.301Z,12.18
2022-09-10T00:57:18.290Z,12.18
2022-09-10T00:58:18.280Z,12.18
2022-09-10T00:59:18.268Z,12.18
2022-09-10T01:00:18.257Z,12.18
2022-09-10T01:01:18.246Z,12.28
2022-09-10T01:02:18.258Z,12.18
2022-09-10T01:03:20.462Z,12.28
2022-09-10T01:04:18.212Z,12.28
2022-09-10T01:05:18.197Z,12.18
2022-09-10T01:06:18.193Z,12.28
2022-09-10T01:07:18.175Z,12.27
2022-09-10T01:08:18.166Z,12.18
2022-09-10T01:09:18.176Z,12.18
2022-09-10T01:10:18.148Z,12.18
2022-09-10T01:11:18.133Z,12.18
2022-09-10T01:12:18.127Z,12.18
2022-09-10T01:13:18.109Z,12.18
2022-09-10T01:14:18.100Z,12.18
2022-09-10T01:15:18.087Z,12.18
2022-09-10T01:16:18.150Z,12.18
2022-09-10T01:17:18.069Z,12.18
2022-09-10T01:18:18.058Z,12.18
2022-09-10T01:19:18.045Z,12.18
2022-09-10T01:20:18.037Z,12.18
2022-09-10T01:21:18.069Z,12.18
2022-09-10T01:22:18.013Z,12.07
2022-09-10T01:23:18.189Z,12.08
2022-09-10T01:24:18.000Z,12.08
2022-09-10T01:25:17.998Z,12.08
2022-09-10T01:26:17.973Z,12.08
2022-09-10T01:27:17.955Z,12.07
2022-09-10T01:28:17.948Z,11.98
2022-09-10T01:29:17.934Z,11.98
2022-09-10T01:30:17.929Z,11.98
2022-09-10T01:31:18.028Z,11.98
2022-09-10T01:32:17.902Z,11.98
2022-09-10T01:33:17.888Z,12.08
2022-09-10T01:34:17.882Z,11.98
2022-09-10T01:35:17.867Z,11.98
2022-09-10T01:36:17.857Z,11.97
2022-09-10T01:37:17.844Z,11.88
2022-09-10T01:38:17.835Z,11.98
2022-09-10T01:39:17.822Z,11.98
2022-09-10T01:40:17.812Z,11.87
2022-09-10T01:41:17.824Z,11.87
2022-09-10T01:42:17.792Z,11.87
2022-09-10T01:43:17.780Z,11.87
2022-09-10T01:44:17.770Z,11.87
2022-09-10T01:45:17.768Z,11.87
2022-09-10T01:46:17.752Z,11.87
2022-09-10T01:47:17.733Z,11.77
2022-09-10T01:48:17.725Z,11.77
2022-09-10T01:49:17.712Z,11.66
2022-09-10T01:50:17.704Z,11.57
2022-09-10T01:51:17.689Z,11.57
2022-09-10T01:52:17.682Z,11.46
2022-09-10T01:53:17.670Z,11.46
2022-09-10T01:54:17.662Z,11.46
2022-09-10T01:55:17.647Z,11.46
2022-09-10T01:56:17.639Z,11.46
2022-09-10T01:57:17.649Z,11.46
2022-09-10T01:58:17.614Z,11.57
2022-09-10T01:59:17.606Z,11.46
2022-09-10T02:00:17.594Z,11.46
2022-09-10T02:01:17.609Z,11.57
2022-09-10T02:02:17.625Z,11.57
2022-09-10T02:03:17.559Z,11.46
2022-09-10T02:04:17.548Z,11.46
2022-09-10T02:05:17.542Z,11.46
2022-09-10T02:06:17.524Z,11.46
2022-09-10T02:07:17.516Z,11.46
2022-09-10T02:08:17.511Z,11.47
2022-09-10T02:09:17.497Z,11.47
2022-09-10T02:10:17.482Z,11.47
2022-09-10T02:11:17.491Z,11.47
2022-09-10T02:12:17.474Z,11.46
2022-09-10T02:13:17.587Z,11.46
2022-09-10T02:14:17.556Z,11.47
2022-09-10T02:15:17.514Z,11.46
2022-09-10T02:16:17.630Z,11.46
2022-09-10T02:17:17.670Z,11.46
2022-09-10T02:18:17.412Z,11.36
2022-09-10T02:19:17.386Z,11.36
2022-09-10T02:20:17.373Z,11.36
2022-09-10T02:21:17.363Z,11.36
2022-09-10T02:22:17.355Z,11.36
2022-09-10T02:23:17.341Z,11.36
2022-09-10T02:24:17.328Z,11.36
2022-09-10T02:25:17.321Z,11.46
2022-09-10T02:26:17.307Z,11.57
2022-09-10T02:27:17.296Z,11.46
2022-09-10T02:28:17.283Z,11.46
2022-09-10T02:29:17.297Z,11.46
2022-09-10T02:30:17.263Z,11.36
2022-09-10T02:31:17.304Z,11.36
2022-09-10T02:32:17.241Z,11.47
2022-09-10T02:33:17.233Z,11.47
2022-09-10T02:34:17.223Z,11.36
2022-09-10T02:35:17.208Z,11.36
2022-09-10T02:36:17.200Z,11.36
2022-09-10T02:37:17.192Z,11.47
2022-09-10T02:38:17.178Z,11.47
2022-09-10T02:39:17.166Z,11.47
2022-09-10T02:40:17.154Z,11.47
2022-09-10T02:41:17.145Z,11.36
2022-09-10T02:42:17.131Z,11.47
2022-09-10T02:43:17.122Z,11.47
2022-09-10T02:44:17.109Z,11.47
2022-09-10T02:45:17.120Z,11.47
2022-09-10T02:46:17.090Z,11.47
2022-09-10T02:47:17.077Z,11.47
2022-09-10T02:48:17.086Z,11.47
2022-09-10T02:49:17.054Z,11.36
2022-09-10T02:50:17.042Z,11.47
2022-09-10T02:51:17.033Z,11.57
2022-09-10T02:52:17.017Z,11.47
2022-09-10T02:53:17.010Z,11.47
2022-09-10T02:54:16.996Z,11.57
2022-09-10T02:55:16.985Z,11.57
2022-09-10T02:56:16.975Z,11.57
2022-09-10T02:57:16.965Z,11.47
2022-09-10T02:58:16.950Z,11.57
2022-09-10T02:59:16.944Z,11.47
2022-09-10T03:00:16.932Z,11.57
2022-09-10T03:01:17.000Z,11.47
2022-09-10T03:02:16.941Z,11.47
2022-09-10T03:03:16.897Z,11.47
2022-09-10T03:04:16.883Z,11.47
2022-09-10T03:05:17.007Z,11.47
2022-09-10T03:06:16.861Z,11.47
2022-09-10T03:07:16.853Z,11.57
2022-09-10T03:08:16.839Z,11.36
2022-09-10T03:09:16.830Z,11.26
2022-09-10T03:10:16.817Z,11.06
2022-09-10T03:11:16.808Z,11.06
2022-09-10T03:12:16.796Z,10.96
2022-09-10T03:13:16.787Z,10.96
2022-09-10T03:14:16.773Z,11.06
2022-09-10T03:15:16.764Z,10.96
2022-09-10T03:16:16.770Z,11.06
2022-09-10T03:17:16.781Z,11.06
2022-09-10T03:18:16.728Z,11.16
2022-09-10T03:19:16.718Z,11.16
2022-09-10T03:20:16.706Z,11.06
2022-09-10T03:21:16.697Z,11.16
2022-09-10T03:22:16.685Z,11.16
2022-09-10T03:23:16.674Z,11.27
2022-09-10T03:24:16.665Z,11.16
2022-09-10T03:25:16.653Z,11.16
2022-09-10T03:26:16.640Z,11.16
2022-09-10T03:27:16.629Z,11.06
2022-09-10T03:28:16.620Z,11.06
2022-09-10T03:29:16.608Z,11.06
2022-09-10T03:30:16.597Z,11.06
2022-09-10T03:31:16.661Z,11.06
2022-09-10T03:32:16.571Z,11.06
2022-09-10T03:33:16.584Z,11.06
2022-09-10T03:34:16.550Z,11.16
2022-09-10T03:35:16.541Z,11.06
2022-09-10T03:36:16.529Z,11.16
2022-09-10T03:37:16.522Z,11.16
2022-09-10T03:38:16.505Z,11.16
2022-09-10T03:39:16.496Z,11.16
2022-09-10T03:40:16.484Z,11.06
2022-09-10T03:41:16.473Z,11.06
2022-09-10T03:42:16.466Z,11.06
2022-09-10T03:43:16.450Z,11.06
2022-09-10T03:44:16.440Z,11.16
2022-09-10T03:45:16.429Z,11.16
2022-09-10T03:46:16.426Z,11.36
2022-09-10T03:47:16.406Z,11.16
2022-09-10T03:48:16.393Z,11.06
2022-09-10T03:49:16.408Z,11.06
2022-09-10T03:50:16.374Z,10.96
2022-09-10T03:51:16.361Z,10.96
2022-09-10T03:52:16.348Z,10.96
2022-09-10T03:53:16.338Z,10.96
2022-09-10T03:54:16.328Z,10.96
2022-09-10T03:55:16.317Z,11.06
2022-09-10T03:56:16.304Z,11.06
2022-09-10T03:57:16.295Z,11.06
2022-09-10T03:58:16.283Z,11.06
2022-09-10T03:59:16.272Z,11.06
2022-09-10T04:00:16.259Z,10.96
2022-09-10T04:01:16.278Z,11.06
2022-09-10T04:02:16.329Z,10.96
2022-09-10T04:03:16.230Z,11.06
2022-09-10T04:04:16.221Z,11.06
2022-09-10T04:05:16.226Z,11.06
2022-09-10T04:06:16.209Z,10.96
2022-09-10T04:07:16.185Z,10.96
2022-09-10T04:08:16.173Z,11.06
2022-09-10T04:09:16.164Z,10.96
2022-09-10T04:10:16.152Z,10.96
2022-09-10T04:11:16.146Z,10.96
2022-09-10T04:12:16.130Z,10.96
2022-09-10T04:13:16.120Z,10.85
2022-09-10T04:14:16.111Z,10.85
2022-09-10T04:15:16.096Z,10.85
2022-09-10T04:16:16.117Z,10.85
2022-09-10T04:17:16.074Z,10.75
2022-09-10T04:18:16.063Z,10.75
2022-09-10T04:19:16.054Z,10.75
2022-09-10T04:20:16.041Z,10.75
2022-09-10T04:21:16.055Z,10.65
2022-09-10T04:22:16.019Z,10.65
2022-09-10T04:23:16.013Z,10.75
2022-09-10T04:24:15.998Z,10.75
2022-09-10T04:25:15.988Z,10.65
2022-09-10T04:26:15.977Z,10.65
2022-09-10T04:27:15.966Z,10.65
2022-09-10T04:28:15.954Z,10.65
2022-09-10T04:29:15.945Z,10.55
2022-09-10T04:30:15.934Z,10.55
2022-09-10T04:31:15.978Z,10.55
2022-09-10T04:32:15.911Z,10.55
2022-09-10T04:33:15.905Z,10.55
2022-09-10T04:34:15.887Z,10.55
2022-09-10T04:35:15.878Z,10.45
2022-09-10T04:36:15.872Z,10.45
2022-09-10T04:37:19.237Z,10.45
2022-09-10T04:38:15.844Z,10.44
2022-09-10T04:39:15.837Z,10.44
2022-09-10T04:40:15.823Z,10.44
2022-09-10T04:41:15.824Z,10.44
2022-09-10T04:42:15.803Z,10.45
2022-09-10T04:43:15.793Z,10.44
2022-09-10T04:44:15.780Z,10.44
2022-09-10T04:45:15.769Z,10.35
2022-09-10T04:46:15.759Z,10.34
2022-09-10T04:47:15.748Z,10.35
2022-09-10T04:48:15.737Z,10.34
2022-09-10T04:49:15.732Z,10.34
2022-09-10T04:50:15.716Z,10.25
2022-09-10T04:51:17.213Z,10.34
2022-09-10T04:52:15.695Z,10.35
2022-09-10T04:53:15.708Z,10.35
2022-09-10T04:54:15.678Z,10.34
2022-09-10T04:55:15.673Z,10.34
2022-09-10T04:56:15.650Z,10.24
2022-09-10T04:57:15.639Z,10.24
2022-09-10T04:58:15.629Z,10.24
2022-09-10T04:59:15.619Z,10.24
2022-09-10T05:00:15.607Z,10.24
2022-09-10T05:01:15.664Z,10.14
2022-09-10T05:02:15.649Z,10.14
2022-09-10T05:03:15.579Z,10.14
2022-09-10T05:04:15.567Z,10.14
2022-09-10T05:05:15.555Z,10.14
2022-09-10T05:06:15.543Z,10.04
2022-09-10T05:07:15.536Z,10.04
2022-09-10T05:08:15.519Z,10.04
2022-09-10T05:09:15.534Z,10.04
2022-09-10T05:10:15.504Z,10.04
2022-09-10T05:11:15.489Z,9.94
2022-09-10T05:12:15.476Z,9.94
2022-09-10T05:13:15.469Z,9.94
2022-09-10T05:14:15.453Z,9.94
2022-09-10T05:15:15.444Z,9.94
2022-09-10T05:16:15.459Z,9.83
2022-09-10T05:17:15.418Z,9.93
2022-09-10T05:18:15.403Z,9.83
2022-09-10T05:19:15.398Z,9.74
2022-09-10T05:20:15.381Z,9.83
2022-09-10T05:21:15.405Z,9.74
2022-09-10T05:22:15.367Z,9.73
2022-09-10T05:23:15.352Z,9.73
2022-09-10T05:24:15.339Z,9.73
2022-09-10T05:25:15.351Z,9.63
2022-09-10T05:26:15.322Z,9.63
2022-09-10T05:27:15.320Z,9.63
2022-09-10T05:28:15.296Z,9.53
2022-09-10T05:29:15.287Z,9.53
2022-09-10T05:30:15.277Z,9.53
2022-09-10T05:31:15.345Z,9.53
2022-09-10T05:32:15.250Z,9.42
2022-09-10T05:33:15.243Z,9.42
2022-09-10T05:34:15.231Z,9.53
2022-09-10T05:35:15.219Z,9.42
2022-09-10T05:36:15.205Z,9.42
2022-09-10T05:37:15.196Z,9.33
2022-09-10T05:38:15.185Z,9.33
2022-09-10T05:39:15.174Z,9.33
2022-09-10T05:40:15.165Z,9.22
2022-09-10T05:41:15.188Z,9.22
2022-09-10T05:42:15.140Z,9.22
2022-09-10T05:43:15.130Z,9.12
2022-09-10T05:44:15.124Z,9.12
2022-09-10T05:45:15.106Z,9.02
2022-09-10T05:46:15.094Z,9.01
2022-09-10T05:47:15.092Z,9.01
2022-09-10T05:48:15.073Z,8.91
2022-09-10T05:49:15.062Z,8.91
2022-09-10T05:50:15.047Z,8.91
2022-09-10T05:51:15.062Z,8.81
2022-09-10T05:52:15.024Z,8.81
2022-09-10T05:53:15.017Z,8.81
2022-09-10T05:54:15.003Z,8.71
2022-09-10T05:55:14.992Z,8.71
2022-09-10T05:56:14.980Z,8.71
2022-09-10T05:57:14.993Z,8.71
2022-09-10T05:58:14.956Z,8.71
2022-09-10T05:59:14.944Z,8.61
2022-09-10T06:00:14.933Z,8.51
2022-09-10T06:01:14.922Z,8.50
2022-09-10T06:02:14.995Z,8.50
2022-09-10T06:03:14.969Z,8.40
2022-09-10T06:04:14.887Z,8.20
2022-09-10T06:05:14.876Z,8.10
2022-09-10T06:06:14.863Z,8.20
2022-09-10T06:07:14.856Z,8.20
2022-09-10T06:08:14.840Z,8.10
2022-09-10T06:09:14.828Z,8.10
2022-09-10T06:10:14.819Z,8.10
2022-09-10T06:11:14.814Z,8.10
2022-09-10T06:12:14.794Z,8.10
2022-09-10T06:13:14.809Z,8.00
2022-09-10T06:14:14.773Z,8.00
2022-09-10T06:15:14.763Z,7.90
2022-09-10T06:16:14.768Z,8.00
2022-09-10T06:17:14.740Z,7.90
2022-09-10T06:18:14.729Z,7.90
2022-09-10T06:19:14.719Z,7.70
2022-09-10T06:20:14.707Z,7.70
2022-09-10T06:21:14.694Z,7.79
2022-09-10T06:22:14.683Z,7.59
2022-09-10T06:23:14.682Z,7.59
2022-09-10T06:24:14.676Z,7.59
2022-09-10T06:25:14.647Z,7.59
2022-09-10T06:26:14.638Z,7.59
2022-09-10T06:27:14.626Z,7.70
2022-09-10T06:28:14.615Z,7.70
2022-09-10T06:29:14.626Z,7.59
2022-09-10T06:30:14.600Z,7.59
2022-09-10T06:31:14.650Z,7.39
2022-09-10T06:32:14.573Z,7.39
2022-09-10T06:33:14.558Z,7.39
2022-09-10T06:34:14.550Z,7.49
2022-09-10T06:35:14.544Z,7.09
2022-09-10T06:36:14.528Z,7.09
2022-09-10T06:37:14.587Z,6.98
2022-09-10T06:38:14.512Z,6.98
2022-09-10T06:39:14.495Z,6.98
2022-09-10T06:40:14.501Z,6.88
2022-09-10T06:41:14.483Z,6.68
2022-09-10T06:42:14.475Z,6.88
2022-09-10T06:43:15.269Z,6.88
2022-09-10T06:44:14.447Z,6.88
2022-09-10T06:45:14.454Z,6.88
2022-09-10T06:46:40.834Z,6.78
2022-09-10T06:48:06.795Z,6.68
2022-09-10T06:49:14.382Z,6.27
2022-09-10T06:50:14.378Z,6.17
2022-09-10T06:51:14.359Z,6.27
2022-09-10T06:52:14.348Z,6.17
2022-09-10T06:53:14.340Z,6.16
2022-09-10T06:54:14.337Z,6.07
2022-09-10T06:55:14.330Z,5.87
2022-09-10T06:56:14.314Z,5.76
2022-09-10T06:57:14.312Z,5.66
2022-09-10T06:58:14.297Z,5.35
2022-09-10T06:59:14.268Z,5.35
2022-09-10T07:00:14.265Z,5.26
2022-09-10T07:01:14.392Z,5.26
2022-09-10T07:02:14.261Z,4.95
2022-09-10T07:03:14.228Z,4.85
2022-09-10T07:04:14.218Z,4.64
2022-09-10T07:05:14.211Z,4.55
2022-09-10T07:06:14.192Z,4.64
2022-09-10T07:07:14.183Z,4.55
2022-09-10T07:08:14.190Z,4.44
2022-09-10T07:09:14.263Z,4.55
2022-09-10T07:10:14.147Z,4.44
2022-09-10T07:11:14.132Z,4.55
2022-09-10T07:12:14.125Z,4.55
2022-09-10T07:13:14.111Z,4.55
2022-09-10T07:14:14.156Z,4.35
2022-09-10T07:15:14.086Z,4.14
2022-09-10T07:16:14.129Z,4.04
2022-09-10T07:17:14.090Z,3.74
2022-09-10T07:18:14.058Z,4.14
2022-09-10T07:19:14.047Z,4.14
2022-09-10T07:20:14.031Z,4.35
2022-09-10T07:21:14.020Z,4.35
2022-09-10T07:22:14.126Z,3.94
2022-09-10T07:23:13.998Z,4.04
2022-09-10T07:24:13.990Z,4.04
2022-09-10T07:25:13.979Z,4.14
2022-09-10T07:26:13.965Z,4.04
2022-09-10T07:27:13.958Z,4.14
2022-09-10T07:28:13.946Z,4.24
2022-09-10T07:29:13.930Z,4.14
2022-09-10T07:30:13.919Z,4.14
2022-09-10T07:31:13.965Z,3.94
2022-09-10T07:32:13.904Z,3.94
2022-09-10T07:33:13.910Z,3.74
2022-09-10T07:34:13.877Z,3.63
2022-09-10T07:35:13.861Z,3.43
2022-09-10T07:36:13.855Z,3.33
2022-09-10T07:37:13.841Z,3.12
2022-09-10T07:38:13.835Z,2.52
2022-09-10T07:39:13.828Z,2.01
2022-09-10T07:40:13.923Z,1.72
2022-09-10T07:41:13.795Z,1.61
2022-09-10T07:42:13.786Z,1.31
2022-09-10T07:43:13.775Z,1.51
2022-09-10T07:44:13.765Z,1.21
2022-09-10T07:45:13.753Z,0.90
2022-09-10T07:46:13.781Z,0.70
2022-09-10T07:47:13.731Z,0.50
2022-09-10T07:48:13.725Z,0.50
2022-09-10T07:49:13.737Z,0.50
2022-09-10T07:50:13.705Z,0.40
2022-09-10T07:51:13.690Z,0.50
2022-09-10T07:52:13.681Z,0.30
2022-09-10T07:53:13.668Z,0.50
2022-09-10T07:54:13.661Z,0.50
2022-09-10T07:55:13.647Z,0.30
2022-09-10T07:56:13.637Z,0.30
2022-09-10T07:57:13.637Z,0.30
2022-09-10T07:58:13.619Z,0.20
2022-09-10T07:59:13.601Z,0.10
2022-09-10T08:00:13.591Z,0.10
2022-09-10T08:01:13.635Z,0.00
2022-09-10T08:02:13.607Z,0.00
2022-09-10T08:03:13.560Z,0.00
2022-09-10T08:04:13.549Z,0.00
2022-09-10T08:05:13.557Z,0.00
2022-09-10T08:06:13.526Z,0.00
2022-09-10T08:07:13.514Z,0.00
2022-09-10T08:08:13.509Z,0.00
2022-09-10T08:09:13.493Z,0.00
2022-09-10T08:10:13.487Z,0.00
2022-09-10T08:11:13.469Z,0.00
2022-09-10T08:12:13.461Z,0.00
2022-09-10T08:13:13.454Z,0.00
2022-09-10T08:14:13.443Z,0.00
2022-09-10T08:15:13.432Z,0.00
2022-09-10T08:16:13.548Z,0.00
2022-09-10T08:17:13.414Z,0.00
2022-09-10T08:18:13.399Z,0.00
2022-09-10T08:19:13.388Z,0.00
2022-09-10T08:20:13.377Z,0.00
2022-09-10T08:21:13.388Z,0.00
2022-09-10T08:22:13.814Z,0.00
2022-09-10T08:23:13.343Z,0.00
2022-09-10T08:24:13.368Z,0.00
2022-09-10T08:25:13.320Z,0.00
2022-09-10T08:26:13.313Z,0.00
2022-09-10T08:27:13.308Z,0.00
2022-09-10T08:28:13.290Z,0.00
2022-09-10T08:29:13.277Z,0.00
2022-09-10T08:30:13.269Z,0.00
2022-09-10T08:31:13.370Z,0.00
2022-09-10T08:32:13.245Z,0.00
2022-09-10T08:33:13.235Z,0.00
2022-09-10T08:34:13.228Z,0.00
2022-09-10T08:35:13.213Z,0.00
2022-09-10T08:36:13.206Z,0.00
2022-09-10T08:37:13.215Z,0.00
2022-09-10T08:38:13.192Z,0.00
2022-09-10T08:39:13.170Z,0.00
2022-09-10T08:40:13.306Z,0.00
2022-09-10T08:41:13.152Z,0.00
2022-09-10T08:42:13.145Z,0.00
2022-09-10T08:43:13.130Z,0.00
2022-09-10T08:44:13.116Z,0.00
2022-09-10T08:45:13.107Z,3.12
2022-09-10T08:46:13.144Z,0.70
2022-09-10T08:47:13.082Z,0.00
2022-09-10T08:48:13.073Z,0.00
2022-09-10T08:49:13.059Z,0.00
2022-09-10T08:50:13.049Z,0.00
2022-09-10T08:51:13.037Z,0.00
2022-09-10T08:52:13.026Z,0.00
2022-09-10T08:53:13.036Z,5.33
2022-09-10T08:54:13.006Z,1.51
2022-09-10T08:55:12.993Z,3.02
2022-09-10T08:56:12.987Z,6.13
2022-09-10T08:57:12.971Z,5.02
2022-09-10T08:58:12.964Z,8.55
2022-09-10T08:59:13.144Z,6.54
2022-09-10T09:00:12.939Z,8.15
2022-09-10T09:01:13.012Z,3.11
2022-09-10T09:02:22.448Z,12.57
2022-09-10T09:03:14.020Z,18.21
2022-09-10T09:04:12.894Z,11.87
2022-09-10T09:05:12.886Z,12.37
2022-09-10T09:06:12.875Z,17.80
2022-09-10T09:07:12.858Z,12.68
2022-09-10T09:08:12.848Z,10.36
2022-09-10T09:09:15.697Z,8.75
2022-09-10T09:10:12.829Z,9.45
2022-09-10T09:11:12.814Z,8.54
2022-09-10T09:12:12.804Z,10.25
2022-09-10T09:13:12.791Z,14.07
2022-09-10T09:14:12.784Z,14.87
2022-09-10T09:15:12.769Z,12.05
2022-09-10T09:16:12.803Z,20.69
2022-09-10T09:17:12.747Z,12.15
2022-09-10T09:18:12.743Z,18.37
2022-09-10T09:19:12.726Z,30.71
2022-09-10T09:20:12.729Z,45.69
2022-09-10T09:21:12.709Z,42.27
2022-09-10T09:22:12.698Z,40.97
2022-09-10T09:23:12.680Z,33.94
2022-09-10T09:24:13.999Z,30.01
2022-09-10T09:25:12.687Z,26.68
2022-09-10T09:26:12.650Z,36.54
2022-09-10T09:27:12.639Z,49.28
2022-09-10T09:28:12.625Z,48.68
2022-09-10T09:29:12.649Z,47.17
2022-09-10T09:30:12.736Z,53.90
2022-09-10T09:31:12.683Z,54.30
2022-09-10T09:32:12.695Z,57.61
2022-09-10T09:33:12.710Z,52.89
2022-09-10T09:34:12.689Z,43.74
2022-09-10T09:35:12.702Z,54.10
2022-09-10T09:36:12.730Z,55.80
2022-09-10T09:37:12.550Z,50.76
2022-09-10T09:38:12.526Z,52.47
2022-09-10T09:39:12.508Z,56.58
2022-09-10T09:40:12.639Z,54.68
2022-09-10T09:41:12.508Z,48.33
2022-09-10T09:42:12.477Z,63.67
2022-09-10T09:43:12.462Z,59.86
2022-09-10T09:44:12.452Z,59.49
2022-09-10T09:45:12.439Z,61.70
2022-09-10T09:46:12.478Z,61.52
2022-09-10T09:47:12.423Z,62.23
2022-09-10T09:48:12.410Z,57.31
2022-09-10T09:49:12.396Z,68.08
2022-09-10T09:50:12.386Z,56.13
2022-09-10T09:51:12.374Z,45.97
2022-09-10T09:52:12.364Z,43.36
2022-09-10T09:53:12.352Z,55.71
2022-09-10T09:54:46.713Z,54.30
2022-09-10T09:55:15.213Z,57.79
2022-09-10T09:56:12.320Z,55.88
2022-09-10T09:57:12.343Z,54.47
2022-09-10T09:58:12.300Z,50.56
2022-09-10T09:59:15.072Z,59.29
2022-09-10T10:00:12.271Z,52.97
2022-09-10T10:01:12.444Z,54.38
2022-09-10T10:02:12.296Z,56.18
2022-09-10T10:03:12.246Z,55.68
2022-09-10T10:04:12.233Z,65.84
2022-09-10T10:05:12.220Z,64.84
2022-09-10T10:06:12.210Z,58.11
2022-09-10T10:07:12.200Z,54.80
2022-09-10T10:08:12.187Z,50.86
2022-09-10T10:09:12.175Z,60.29
2022-09-10T10:10:12.222Z,60.62
2022-09-10T10:11:12.153Z,64.84
2022-09-10T10:12:12.147Z,56.10
2022-09-10T10:13:12.157Z,48.25
2022-09-10T10:14:12.122Z,68.52
2022-09-10T10:15:12.106Z,68.45
2022-09-10T10:16:12.132Z,60.12
2022-09-10T10:17:12.089Z,56.98
2022-09-10T10:18:12.079Z,70.83
2022-09-10T10:19:12.060Z,69.73
2022-09-10T10:20:12.053Z,69.92
2022-09-10T10:21:12.057Z,68.92
2022-09-10T10:22:12.032Z,63.10
2022-09-10T10:23:12.022Z,58.06
2022-09-10T10:24:12.052Z,57.23
2022-09-10T10:25:12.072Z,60.61
2022-09-10T10:26:11.987Z,73.47
2022-09-10T10:27:11.976Z,67.92
2022-09-10T10:28:11.968Z,65.01
2022-09-10T10:29:11.978Z,74.40
2022-09-10T10:30:11.946Z,76.60
2022-09-10T10:31:11.959Z,77.20
2022-09-10T10:32:11.923Z,75.70
2022-09-10T10:33:11.913Z,75.40
2022-09-10T10:34:11.899Z,77.56
2022-09-10T10:35:11.891Z,83.27
2022-09-10T10:36:11.883Z,75.46
2022-09-10T10:37:11.868Z,79.27
2022-09-10T10:38:11.855Z,75.40
2022-09-10T10:39:11.845Z,71.39
2022-09-10T10:40:11.863Z,67.19
2022-09-10T10:41:11.824Z,68.49
2022-09-10T10:42:11.816Z,72.19
2022-09-10T10:43:11.802Z,76.20
2022-09-10T10:44:11.788Z,74.20
2022-09-10T10:45:11.800Z,79.24
2022-09-10T10:46:12.154Z,76.04
2022-09-10T10:47:11.758Z,75.67
2022-09-10T10:48:11.751Z,75.27
2022-09-10T10:49:11.740Z,69.69
2022-09-10T10:50:11.724Z,67.79
2022-09-10T10:51:11.716Z,70.19
2022-09-10T10:52:11.700Z,72.30
2022-09-10T10:53:11.714Z,74.51
2022-09-10T10:54:11.695Z,72.90
2022-09-10T10:55:11.669Z,72.83
2022-09-10T10:56:11.656Z,69.92
2022-09-10T10:57:11.647Z,73.74
2022-09-10T10:58:11.636Z,71.56
2022-09-10T10:59:11.867Z,67.65
2022-09-10T11:00:11.616Z,70.56
2022-09-10T11:01:11.676Z,68.82
2022-09-10T11:02:11.657Z,65.21
2022-09-10T11:03:11.578Z,64.21
2022-09-10T11:04:11.576Z,61.77
2022-09-10T11:05:11.560Z,64.78
2022-09-10T11:06:11.562Z,55.05
2022-09-10T11:07:11.534Z,68.82
2022-09-10T11:08:11.534Z,73.57
2022-09-10T11:09:11.527Z,65.95
2022-09-10T11:10:11.509Z,65.15
2022-09-10T11:11:11.493Z,69.66
2022-09-10T11:12:11.487Z,68.55
2022-09-10T11:13:11.470Z,60.33
2022-09-10T11:14:11.460Z,64.04
2022-09-10T11:15:11.462Z,64.28
2022-09-10T11:16:11.478Z,63.84
2022-09-10T11:17:11.469Z,67.96
2022-09-10T11:18:11.421Z,69.76
2022-09-10T11:19:11.413Z,69.66
2022-09-10T11:20:27.896Z,69.12
2022-09-10T11:21:11.387Z,74.84
2022-09-10T11:22:11.372Z,77.50
2022-09-10T11:23:11.365Z,75.40
2022-09-10T11:24:16.338Z,79.74
2022-09-10T11:25:11.346Z,73.33
2022-09-10T11:26:11.332Z,68.82
2022-09-10T11:27:11.327Z,70.53
2022-09-10T11:28:11.319Z,73.73
2022-09-10T11:29:11.334Z,72.43
2022-09-10T11:30:11.811Z,74.54
2022-09-10T11:31:11.420Z,73.73
2022-09-10T11:32:11.257Z,73.97
2022-09-10T11:33:11.278Z,74.57
2022-09-10T11:34:11.237Z,72.16
2022-09-10T11:35:11.345Z,69.56
2022-09-10T11:36:11.214Z,73.16
2022-09-10T11:37:11.208Z,70.66
2022-09-10T11:38:11.507Z,74.47
2022-09-10T11:39:11.186Z,70.69
2022-09-10T11:40:11.234Z,73.97
2022-09-10T11:41:11.184Z,68.05
2022-09-10T11:42:11.151Z,73.36
2022-09-10T11:43:11.143Z,65.45
2022-09-10T11:44:11.131Z,72.36
2022-09-10T11:45:12.139Z,73.86
2022-09-10T11:46:11.167Z,74.67
2022-09-10T11:47:11.097Z,73.77
2022-09-10T11:48:11.087Z,70.83
2022-09-10T11:49:11.101Z,70.93
2022-09-10T11:50:11.065Z,69.59
2022-09-10T11:51:11.122Z,75.90
2022-09-10T11:52:11.042Z,75.30
2022-09-10T11:53:11.030Z,72.39
2022-09-10T11:54:11.024Z,75.60
2022-09-10T11:55:11.024Z,77.00
2022-09-10T11:56:11.028Z,78.41
2022-09-10T11:57:10.988Z,75.70
2022-09-10T11:58:10.977Z,77.40
2022-09-10T11:59:10.967Z,74.40
2022-09-10T12:00:10.957Z,79.86
2022-09-10T12:01:10.944Z,79.80
2022-09-10T12:02:10.988Z,83.41
2022-09-10T12:03:10.967Z,78.60
2022-09-10T12:04:10.910Z,83.01
2022-09-10T12:05:10.924Z,81.71
2022-09-10T12:06:10.887Z,81.97
2022-09-10T12:07:10.878Z,83.11
2022-09-10T12:08:10.867Z,81.47
2022-09-10T12:09:10.855Z,81.61
2022-09-10T12:10:14.178Z,76.06
2022-09-10T12:11:10.852Z,81.87
2022-09-10T12:12:10.833Z,78.63
2022-09-10T12:13:10.818Z,83.99
2022-09-10T12:14:10.803Z,85.09
2022-09-10T12:15:10.791Z,84.29
2022-09-10T12:16:10.806Z,89.09
2022-09-10T12:17:10.768Z,89.69
2022-09-10T12:18:10.757Z,87.29
2022-09-10T12:19:10.748Z,83.99
2022-09-10T12:20:10.735Z,82.95
2022-09-10T12:21:10.749Z,92.00
2022-09-10T12:22:10.709Z,89.15
2022-09-10T12:23:10.702Z,90.15
2022-09-10T12:24:10.694Z,88.85
2022-09-10T12:25:10.679Z,91.35
2022-09-10T12:26:10.666Z,86.95
2022-09-10T12:27:10.657Z,88.65
2022-09-10T12:28:10.645Z,88.51
2022-09-10T12:29:10.636Z,88.60
2022-09-10T12:30:10.630Z,88.26
2022-09-10T12:31:10.624Z,91.66
2022-09-10T12:32:10.603Z,92.86
2022-09-10T12:33:10.592Z,93.70
2022-09-10T12:34:10.597Z,94.00
2022-09-10T12:35:10.569Z,93.36
2022-09-10T12:36:10.634Z,93.26
2022-09-10T12:37:10.568Z,92.96
2022-09-10T12:38:10.538Z,91.56
2022-09-10T12:39:10.528Z,93.66
2022-09-10T12:40:13.091Z,92.56
2022-09-10T12:41:10.505Z,93.55
2022-09-10T12:42:10.501Z,93.70
2022-09-10T12:43:10.494Z,91.20
2022-09-10T12:44:10.473Z,92.80
2022-09-10T12:45:10.461Z,88.60
2022-09-10T12:46:10.497Z,88.46
2022-09-10T12:47:10.446Z,94.35
2022-09-10T12:48:10.431Z,93.00
2022-09-10T12:49:10.461Z,93.70
2022-09-10T12:50:10.453Z,91.60
2022-09-10T12:51:10.402Z,91.20
2022-09-10T12:52:10.389Z,91.16
2022-09-10T12:53:10.420Z,90.81
2022-09-10T12:54:10.363Z,94.41
2022-09-10T12:55:10.355Z,94.61
2022-09-10T12:56:15.015Z,91.57
2022-09-10T12:57:10.338Z,95.51
2022-09-10T12:58:10.321Z,95.15
2022-09-10T12:59:10.313Z,94.50
2022-09-10T13:00:10.301Z,92.36
2022-09-10T13:01:10.355Z,93.05